Miami, FL

12:58 PM EST en Diciembre 18, 2018 (GMT -0500)
Frost Museum of Science WeatherSTEM | | Change Station

Alt 32 ft 25.79 °N, 80.19 °W | Updated 4 minutes ago

Despejado
Despejado
71.6 ° F
Sensación térmica 74 ° F
N
3
Viento Variable Viento desde Este
Gusts 0.0 mph

Hoy
Alta -- | Baja -- ° F
--% Posibilidad de precipitaciones
Ayer
Alta -- | Baja -- ° F
Precip. -- pul
Presión 30.06 pul
Visibilidad 10.0 Millas
Nubes Baja 3700 ft
Baja 30000 ft
Índice de calor 74 ° F
Punto de rocío 61 ° F
Humedad 70%
Precipitaciones 0.00 pul
Espesor de la nieve No disponible.
7:01 AM 5:33 PM
Gibosa creciente, 81% visible
METAR KMIA 181753Z 06004KT 10SM FEW037 FEW300 23/13 A3006 RMK AO2 SLP180 T02280133 10228 20133 58022
Presión 30.06 pul
Visibilidad 10.0 Millas
Nubes Baja 3700 ft
Baja 30000 ft
Índice de calor 74 ° F
Punto de rocío 61 ° F
Humedad 70%
Precipitaciones 0.00 pul
Espesor de la nieve No disponible.
7:01 AM 5:33 PM
Gibosa creciente, 81% visible
METAR KMIA 181753Z 06004KT 10SM FEW037 FEW300 23/13 A3006 RMK AO2 SLP180 T02280133 10228 20133 58022

Get Severe Weather Alerts

Thanks for signing up!

Be on the lookout for a verification email in your inbox.

You'll start receiving the daily forecast at 6 AM.

×

10-Day Weather Forecast

Almanac

Astronomía

Dec. 18, 2018 Salida Puesta
Hora real
Crepúsculo civil
Crepúsculo náutico
Crepúsculo astronómico
Luna
Horas de luz
Horas de luz
Tomorrow will be .
, % of the Moon is Illuminated

Extremos de hoy

Máximos del estado Bajos del estado

Community

WunderPhotos

Category 6

Welcome to Category 6. This is the collective home for Weather Underground's featured writeups by Dr. Jeff Masters (right), Bob Henson (left), Chris Burt, and other regular contributors.

Nearby

Calidad del aire

  Calidad del aire Índice AQ Contaminante
Not available.

Grosos de nieve

Estación Profundido Altura

Actividad de terremotos

Ciudad Distance Mag. Tiempo y dato
Magnitud mínima muestra es 2,5.

Temperaturas de aguas costeras

Lugar Temperatura

Stations

Estaciones meteorológicas cercanas

Ubicación de la estación Temp. Vientos helados Punto de rocío Humedad Viento Precip. Alt Actualizado Tipo
                   

Watches & Warnings

There are currently no watches in effect.